Main page
METAR-TAF:

METAR-TAF

Airports :

San Fernando, Argentina

San Fernando Airport

latitude: 34-27-11S, longitude: 058-35-23W, elevation: 3 m

Current weather observation

The report was made 1 hour and 1 minutes ago, at 08:00 UTC
Wind 3 kt from the Northwest
Temperature 11°C
Humidity 82%
Pressure 1021 hPa
Visibility 10 km or more
no clouds below 1500 m and no cumulonimbus

METAR: SADF 300800Z 32003KT CAVOK 11/08 Q1021

Time: 06:01 (09:01 UTC)

Forecast

The report was made 4 hours and 1 minutes ago, at 05:00 UTC
Forecast valid from 30 at 06 UTC to 01 at 06 UTC
Wind kt from the North
Visibility 10 km or more
no clouds below 1500 m and no cumulonimbus
Temporary
from 30 at 08 UTC to 30 at 11 UTC
Visibility: 6000 m
Becoming
from 30 at 12 UTC to 30 at 14 UTC
Wind 10 kt from the Northwest
Becoming
from 30 at 23 UTC to 01 at 01 UTC
Wind 5 kt from the North/Northeast

TAF: SADF 300500Z 3006/0106 00000KT CAVOK TX25/3018Z TN1/3010Z TEMPO 3008/3011 6000 NSC BECMG 3012/3014 32010KT BECMG 3023/0101 02005KT

Weather observations and forecasts of more than 4000 airports (METAR and TAF reports).

The available stations are represented by yellow and red dots on the map.

Hover mouse over dot to see the name of the station.

Then click to see weather observations and forecasts.

To change the map : click on the green buttons with a black cross to zoom in, on the green button with a dash to zoom out, or on the green arrows for adjacent maps.


METAR-TAF: